Terminal Aerodrome Forecast
Issued by NWS

Home | Current Version | Previous Version | Graphics & Text | Print | Product List | Glossary On
Versions: 1 2 3 4 5 6 7 8 9 10 11 12 13 14 15 16 17 18 19 20 21 22 23 24 25
000
FTUS43 KICT 291355 AAB
TAFSLN
TAF AMD
KSLN 291355Z 2914/3012 34007KT P6SM SCT015 BKN030
     FM291700 01010KT P6SM SCT035
     FM300000 07006KT P6SM SKC
     FM300800 VRB04KT 3SM BR BKN015=

USA.gov is the U.S. government's official web portal to all federal, state and local government web resources and services.